createdAt,value
2018-10-03T00:00:49.984Z,65.50
2018-10-03T00:03:18.541Z,66.10
2018-10-03T00:05:47.170Z,66.50
2018-10-03T00:08:15.885Z,66.40
2018-10-03T00:10:44.497Z,67.50
2018-10-03T00:13:13.121Z,67.40
2018-10-03T00:15:42.269Z,66.70
2018-10-03T00:18:11.077Z,66.10
2018-10-03T00:20:40.713Z,65.80
2018-10-03T00:23:09.391Z,64.80
2018-10-03T00:25:38.073Z,63.80
2018-10-03T00:28:06.689Z,62.20
2018-10-03T00:30:35.330Z,62.30
2018-10-03T00:33:04.040Z,63.00
2018-10-03T00:35:32.585Z,63.60
2018-10-03T00:38:01.229Z,63.40
2018-10-03T00:40:30.832Z,63.20
2018-10-03T00:42:59.662Z,62.80
2018-10-03T00:45:28.662Z,62.10
2018-10-03T00:47:58.153Z,62.10
2018-10-03T00:50:27.458Z,61.90
2018-10-03T00:52:56.106Z,61.70
2018-10-03T00:55:24.681Z,62.10
2018-10-03T00:57:53.333Z,62.50
2018-10-03T01:00:22.293Z,62.60
2018-10-03T01:02:51.607Z,62.30
2018-10-03T01:05:20.213Z,61.50
2018-10-03T01:07:49.470Z,61.60
2018-10-03T01:10:18.166Z,61.10
2018-10-03T01:12:47.365Z,61.40
2018-10-03T01:15:16.869Z,60.70
2018-10-03T01:17:46.860Z,61.20
2018-10-03T01:20:15.729Z,62.20
2018-10-03T01:22:45.755Z,63.00
2018-10-03T01:25:14.442Z,62.30
2018-10-03T01:27:42.995Z,62.60
2018-10-03T01:30:11.547Z,61.70
2018-10-03T01:32:40.169Z,63.10
2018-10-03T01:35:09.416Z,63.80
2018-10-03T01:37:38.150Z,64.30
2018-10-03T01:40:07.799Z,63.50
2018-10-03T01:42:36.742Z,63.50
2018-10-03T01:45:05.470Z,62.80
2018-10-03T01:47:34.391Z,62.60
2018-10-03T01:50:04.117Z,63.10
2018-10-03T01:52:32.755Z,63.50
2018-10-03T01:55:01.397Z,63.40
2018-10-03T01:57:30.026Z,64.30
2018-10-03T01:59:58.701Z,64.60
2018-10-03T02:02:27.591Z,64.20
2018-10-03T02:04:56.200Z,65.30
2018-10-03T02:07:24.784Z,65.90
2018-10-03T02:09:53.393Z,66.40
2018-10-03T02:12:22.175Z,66.70
2018-10-03T02:14:50.847Z,67.00
2018-10-03T02:17:19.494Z,66.70
2018-10-03T02:19:48.201Z,66.60
2018-10-03T02:22:16.858Z,65.80
2018-10-03T02:24:45.420Z,65.50
2018-10-03T02:27:14.125Z,66.10
2018-10-03T02:29:42.659Z,66.50
2018-10-03T02:32:11.316Z,66.40
2018-10-03T02:34:39.934Z,65.70
2018-10-03T02:37:08.498Z,63.80
2018-10-03T02:39:37.106Z,63.70
2018-10-03T02:42:05.792Z,63.90
2018-10-03T02:44:34.381Z,63.70
2018-10-03T02:47:02.967Z,62.30
2018-10-03T02:49:32.019Z,62.00
2018-10-03T02:52:00.741Z,62.20
2018-10-03T02:54:29.465Z,62.00
2018-10-03T02:56:58.148Z,62.40
2018-10-03T02:59:26.766Z,61.90
2018-10-03T03:01:55.446Z,61.70
2018-10-03T03:04:24.169Z,61.70
2018-10-03T03:06:52.894Z,61.90
2018-10-03T03:09:21.500Z,61.60
2018-10-03T03:11:50.055Z,61.30
2018-10-03T03:14:18.926Z,61.10
2018-10-03T03:16:48.201Z,61.50
2018-10-03T03:19:16.933Z,61.00
2018-10-03T03:21:45.635Z,60.90
2018-10-03T03:24:14.542Z,60.70
2018-10-03T03:26:43.150Z,60.20
2018-10-03T03:29:12.464Z,60.20
2018-10-03T03:31:41.083Z,58.70
2018-10-03T03:34:09.656Z,59.10
2018-10-03T03:36:38.361Z,56.70
2018-10-03T03:39:07.918Z,58.20
2018-10-03T03:41:36.714Z,58.50
2018-10-03T03:44:05.300Z,58.70
2018-10-03T03:46:33.947Z,58.30
2018-10-03T03:49:02.690Z,57.60
2018-10-03T03:51:31.282Z,57.30
2018-10-03T03:54:00.352Z,55.60
2018-10-03T03:56:29.157Z,58.30
2018-10-03T03:58:57.735Z,57.30
2018-10-03T04:01:26.446Z,58.20
2018-10-03T04:03:55.794Z,55.70
2018-10-03T04:06:24.372Z,56.20
2018-10-03T04:08:53.671Z,56.60
2018-10-03T04:11:22.325Z,58.70
2018-10-03T04:13:50.924Z,56.10
2018-10-03T04:16:19.594Z,56.80
2018-10-03T04:18:48.337Z,56.60
2018-10-03T04:21:16.925Z,56.30
2018-10-03T04:23:45.498Z,57.40
2018-10-03T04:26:14.201Z,55.40
2018-10-03T04:28:42.878Z,55.10
2018-10-03T04:31:11.598Z,56.60
2018-10-03T04:33:40.873Z,56.60
2018-10-03T04:36:10.283Z,57.30
2018-10-03T04:38:38.857Z,56.40
2018-10-03T04:41:07.456Z,56.60
2018-10-03T04:43:36.246Z,58.00
2018-10-03T04:46:05.673Z,57.80
2018-10-03T04:48:34.310Z,57.00
2018-10-03T04:51:03.001Z,58.60
2018-10-03T04:53:31.603Z,57.00
2018-10-03T04:56:00.214Z,57.80
2018-10-03T04:58:28.969Z,58.60
2018-10-03T05:00:57.605Z,60.10
2018-10-03T05:03:26.292Z,60.30
2018-10-03T05:05:55.053Z,60.40
2018-10-03T05:08:23.749Z,60.30
2018-10-03T05:10:52.333Z,60.20
2018-10-03T05:13:20.943Z,60.30
2018-10-03T05:15:49.845Z,60.10
2018-10-03T05:18:18.454Z,60.90
2018-10-03T05:20:47.209Z,60.80
2018-10-03T05:23:15.791Z,60.90
2018-10-03T05:25:44.495Z,60.70
2018-10-03T05:28:13.341Z,60.80
2018-10-03T05:30:42.662Z,60.80
2018-10-03T05:33:12.100Z,61.20
2018-10-03T05:35:42.224Z,61.50
2018-10-03T05:38:10.927Z,61.40
2018-10-03T05:40:40.039Z,61.60
2018-10-03T05:43:08.677Z,62.10
2018-10-03T05:45:37.275Z,62.20
2018-10-03T05:48:06.123Z,62.50
2018-10-03T05:50:34.673Z,62.30
2018-10-03T05:53:04.494Z,62.60
2018-10-03T05:55:33.197Z,62.40
2018-10-03T05:58:02.005Z,62.60
2018-10-03T06:00:30.630Z,62.70
2018-10-03T06:02:59.373Z,62.70
2018-10-03T06:05:27.901Z,63.30
2018-10-03T06:07:56.485Z,63.30
2018-10-03T06:10:25.036Z,63.70
2018-10-03T06:12:53.626Z,63.30
2018-10-03T06:15:22.442Z,63.20
2018-10-03T06:17:51.134Z,62.90
2018-10-03T06:20:21.498Z,62.30
2018-10-03T06:22:50.633Z,62.00
2018-10-03T06:25:19.322Z,62.10
2018-10-03T06:27:48.211Z,62.10
2018-10-03T06:30:17.033Z,62.30
2018-10-03T06:32:45.726Z,61.60
2018-10-03T06:35:14.845Z,60.80
2018-10-03T06:37:43.384Z,60.30
2018-10-03T06:40:12.564Z,60.10
2018-10-03T06:42:41.164Z,60.10
2018-10-03T06:45:09.775Z,60.40
2018-10-03T06:47:39.158Z,59.30
2018-10-03T06:50:07.829Z,60.00
2018-10-03T06:52:36.406Z,57.90
2018-10-03T06:55:05.649Z,58.70
2018-10-03T06:57:34.451Z,58.30
2018-10-03T07:00:03.446Z,57.90
2018-10-03T07:02:32.618Z,58.80
2018-10-03T07:05:01.223Z,58.40
2018-10-03T07:07:29.983Z,56.30
2018-10-03T07:09:58.604Z,57.60
2018-10-03T07:12:27.185Z,59.10
2018-10-03T07:14:55.868Z,55.90
2018-10-03T07:17:24.554Z,55.30
2018-10-03T07:19:53.340Z,56.30
2018-10-03T07:22:21.984Z,54.10
2018-10-03T07:24:50.559Z,52.90
2018-10-03T07:27:19.374Z,54.90
2018-10-03T07:29:47.945Z,52.30
2018-10-03T07:32:16.665Z,52.40
2018-10-03T07:34:46.037Z,53.80
2018-10-03T07:37:14.758Z,53.30
2018-10-03T07:39:43.522Z,53.70
2018-10-03T07:42:12.429Z,53.10
2018-10-03T07:44:40.974Z,53.90
2018-10-03T07:47:09.606Z,53.40
2018-10-03T07:49:38.602Z,52.20
2018-10-03T07:52:07.768Z,50.40
2018-10-03T07:54:36.592Z,52.00
2018-10-03T07:57:05.237Z,52.50
2018-10-03T07:59:33.938Z,52.20
2018-10-03T08:02:02.750Z,53.50
2018-10-03T08:04:31.557Z,54.50
2018-10-03T08:07:01.471Z,54.60
2018-10-03T08:39:36.928Z,60.10
2018-10-03T08:42:05.656Z,58.40
2018-10-03T08:44:34.627Z,60.20
2018-10-03T08:47:03.397Z,61.60
2018-10-03T08:49:32.422Z,63.20
2018-10-03T08:52:01.407Z,62.40
2018-10-03T08:54:30.325Z,64.50
2018-10-03T08:56:59.186Z,63.30
2018-10-03T08:59:28.073Z,63.90
2018-10-03T09:01:56.946Z,64.10
2018-10-03T09:04:25.669Z,63.40
2018-10-03T09:06:54.641Z,63.90
2018-10-03T09:09:23.437Z,64.20
2018-10-03T09:11:52.201Z,65.50
2018-10-03T09:14:21.023Z,65.00
2018-10-03T09:16:49.801Z,67.80
2018-10-03T09:19:18.894Z,67.70
2018-10-03T09:21:47.897Z,68.10
2018-10-03T09:24:16.569Z,68.40
2018-10-03T09:26:45.440Z,69.10
2018-10-03T09:29:14.292Z,69.20
2018-10-03T09:31:43.164Z,67.40
2018-10-03T09:34:12.054Z,68.70
2018-10-03T09:36:40.788Z,69.90
2018-10-03T09:39:11.373Z,70.70
2018-10-03T09:41:40.380Z,71.10
2018-10-03T09:44:09.949Z,70.10
2018-10-03T09:46:38.813Z,71.10
2018-10-03T09:49:07.586Z,70.30
2018-10-03T09:51:36.936Z,69.40
2018-10-03T09:54:06.254Z,71.10
2018-10-03T09:56:35.809Z,68.60
2018-10-03T09:59:04.674Z,67.10
2018-10-03T10:01:47.354Z,67.70
2018-10-03T10:04:16.624Z,69.00
2018-10-03T10:06:45.435Z,68.50
2018-10-03T10:09:14.356Z,69.20
2018-10-03T10:11:55.538Z,68.00
2018-10-03T10:14:24.903Z,67.30
2018-10-03T10:16:54.208Z,67.20
2018-10-03T10:19:23.077Z,66.70
2018-10-03T10:21:53.432Z,67.90
2018-10-03T10:24:22.469Z,68.30
2018-10-03T10:26:52.001Z,64.80
2018-10-03T10:29:20.879Z,65.00
2018-10-03T10:31:49.790Z,65.10
2018-10-03T10:34:18.638Z,64.70
2018-10-03T10:36:47.442Z,64.20
2018-10-03T10:39:16.303Z,62.30
2018-10-03T10:41:45.098Z,61.20
2018-10-03T10:44:13.911Z,61.80
2018-10-03T10:46:42.950Z,58.70
2018-10-03T10:49:12.244Z,50.10
2018-10-03T10:51:41.329Z,49.90
2018-10-03T10:54:10.136Z,51.30
2018-10-03T10:56:38.881Z,50.60
2018-10-03T10:59:07.750Z,55.10
2018-10-03T11:01:36.568Z,46.50
2018-10-03T11:04:05.389Z,44.40
2018-10-03T11:06:34.267Z,42.60
2018-10-03T11:09:03.541Z,42.10
2018-10-03T11:11:32.470Z,40.80
2018-10-03T11:14:01.122Z,37.80
2018-10-03T11:16:30.181Z,38.00
2018-10-03T11:18:59.083Z,39.60
2018-10-03T11:21:27.891Z,39.50
2018-10-03T11:23:56.946Z,39.60
2018-10-03T11:26:25.919Z,40.00
2018-10-03T11:28:54.633Z,41.60
2018-10-03T11:31:23.315Z,42.30
2018-10-03T11:33:52.229Z,42.20
2018-10-03T11:36:20.917Z,42.50
2018-10-03T11:38:49.900Z,44.00
2018-10-03T11:41:18.803Z,43.70
2018-10-03T11:43:47.736Z,43.40
2018-10-03T11:46:16.486Z,42.70
2018-10-03T11:48:45.495Z,44.20
2018-10-03T11:51:14.366Z,43.20
2018-10-03T11:53:42.997Z,44.70
2018-10-03T11:56:11.742Z,45.60
2018-10-03T11:58:40.460Z,43.80
2018-10-03T12:01:09.177Z,44.30
2018-10-03T12:03:38.121Z,44.80
2018-10-03T12:06:06.971Z,43.90
2018-10-03T12:08:35.763Z,46.20
2018-10-03T12:11:04.497Z,45.90
2018-10-03T12:13:33.276Z,45.00
2018-10-03T12:16:03.396Z,42.50
2018-10-03T12:18:32.760Z,41.90
2018-10-03T12:21:01.580Z,40.30
2018-10-03T12:23:30.786Z,39.70
2018-10-03T12:25:59.696Z,39.00
2018-10-03T12:28:28.665Z,40.00
2018-10-03T12:30:57.642Z,40.70
2018-10-03T12:33:26.705Z,39.20
2018-10-03T12:35:55.592Z,40.40
2018-10-03T12:38:24.552Z,40.30
2018-10-03T12:40:53.513Z,40.40
2018-10-03T12:43:22.591Z,40.80
2018-10-03T12:45:51.640Z,41.10
2018-10-03T12:48:20.536Z,39.50
2018-10-03T12:50:49.324Z,39.00
2018-10-03T12:53:18.112Z,38.80
2018-10-03T12:55:46.901Z,39.30
2018-10-03T12:58:15.548Z,40.30
2018-10-03T13:00:44.327Z,39.30
2018-10-03T13:03:13.266Z,40.70
2018-10-03T13:05:42.330Z,39.70
2018-10-03T13:08:11.348Z,39.60
2018-10-03T13:10:40.133Z,39.90
2018-10-03T13:13:08.812Z,40.00
2018-10-03T13:15:37.861Z,39.30
2018-10-03T13:18:06.930Z,40.70
2018-10-03T13:20:35.796Z,40.90
2018-10-03T13:23:04.577Z,39.70
2018-10-03T13:25:33.295Z,38.90
2018-10-03T13:28:02.117Z,38.50
2018-10-03T13:30:30.908Z,36.70
2018-10-03T13:32:59.600Z,37.10
2018-10-03T13:35:28.528Z,36.80
2018-10-03T13:37:57.406Z,35.60
2018-10-03T13:40:26.295Z,35.30
2018-10-03T13:42:55.081Z,35.10
2018-10-03T13:45:23.783Z,34.40
2018-10-03T13:47:52.557Z,35.30
2018-10-03T13:50:21.497Z,34.40
2018-10-03T13:52:50.173Z,34.20
2018-10-03T13:55:18.991Z,34.00
2018-10-03T13:57:47.872Z,34.10
2018-10-03T14:00:16.706Z,33.90
2018-10-03T14:02:45.446Z,34.20
2018-10-03T14:05:14.265Z,34.50
2018-10-03T17:10:29.009Z,50.70
2018-10-03T17:12:57.880Z,50.60
2018-10-03T17:15:26.785Z,51.40
2018-10-03T17:17:55.501Z,54.90
2018-10-03T17:20:24.520Z,55.10
2018-10-03T17:22:53.325Z,55.10
2018-10-03T17:25:22.057Z,57.50
2018-10-03T17:27:50.779Z,60.90
2018-10-03T17:30:19.576Z,61.30
2018-10-03T17:32:48.412Z,61.30
2018-10-03T17:35:17.164Z,62.40
2018-10-03T17:37:46.341Z,62.80
2018-10-03T17:40:15.074Z,62.20
2018-10-03T17:42:43.848Z,62.10
2018-10-03T17:45:12.825Z,61.40
2018-10-03T17:47:41.789Z,61.30
2018-10-03T17:50:10.618Z,61.70
2018-10-03T17:52:39.894Z,61.20
2018-10-03T17:55:08.599Z,61.50
2018-10-03T17:57:37.550Z,62.10
2018-10-03T18:00:07.274Z,62.60
2018-10-03T18:02:36.020Z,61.80
2018-10-03T18:05:05.227Z,61.50
2018-10-03T18:07:33.983Z,61.40
2018-10-03T18:10:02.698Z,61.90
2018-10-03T18:12:31.525Z,63.40
2018-10-03T18:15:00.305Z,63.50
2018-10-03T18:17:28.986Z,63.60
2018-10-03T18:19:57.990Z,64.30
2018-10-03T18:22:27.078Z,64.10
2018-10-03T18:24:56.213Z,63.50
2018-10-03T18:27:25.244Z,63.70
2018-10-03T18:29:54.604Z,63.90
2018-10-03T18:32:24.192Z,64.00
2018-10-03T18:34:54.032Z,64.40
2018-10-03T18:37:24.185Z,64.00
2018-10-03T18:39:54.279Z,63.90
2018-10-03T18:42:24.976Z,64.00
2018-10-03T18:44:54.995Z,64.30
2018-10-03T18:47:25.572Z,64.40
2018-10-03T18:49:55.919Z,64.30
2018-10-03T18:52:26.415Z,64.90
2018-10-03T18:54:57.265Z,65.50
2018-10-03T18:57:28.081Z,67.20
2018-10-03T18:59:58.822Z,67.10
2018-10-03T19:02:29.741Z,67.10
2018-10-03T19:05:00.652Z,65.90
2018-10-03T19:07:31.485Z,65.50
2018-10-03T19:10:02.390Z,65.40
2018-10-03T19:12:33.451Z,65.70
2018-10-03T19:15:05.130Z,67.10
2018-10-03T19:17:36.481Z,68.10
2018-10-03T19:20:07.726Z,67.00
2018-10-03T19:22:39.030Z,67.50
2018-10-03T19:25:11.028Z,67.80
2018-10-03T19:27:42.226Z,67.80
2018-10-03T19:30:13.505Z,67.50
2018-10-03T19:32:44.875Z,66.50
2018-10-03T19:35:16.061Z,66.10
2018-10-03T19:37:46.987Z,66.80
2018-10-03T19:40:18.600Z,67.10
2018-10-03T19:42:50.098Z,77.00
2018-10-03T19:45:21.344Z,77.60
2018-10-03T19:47:53.156Z,77.60
2018-10-03T19:50:25.016Z,77.80
2018-10-03T19:52:56.158Z,77.10
2018-10-03T19:55:26.399Z,77.10
2018-10-03T19:57:56.497Z,77.90
2018-10-03T20:00:27.120Z,77.60
2018-10-03T20:02:57.148Z,78.00
2018-10-03T20:05:27.248Z,77.20
2018-10-03T20:07:57.295Z,78.00
2018-10-03T20:10:27.375Z,77.70
2018-10-03T20:12:57.301Z,78.00
2018-10-03T20:15:27.326Z,77.80
2018-10-03T20:17:56.994Z,78.20
2018-10-03T20:20:26.721Z,79.20
2018-10-03T20:22:56.220Z,79.50
2018-10-03T20:25:25.686Z,79.80
2018-10-03T20:27:55.253Z,79.30
2018-10-03T20:30:24.112Z,80.00
2018-10-03T20:32:52.928Z,79.20
2018-10-03T20:35:22.091Z,79.00
2018-10-03T20:37:50.851Z,79.20
2018-10-03T20:40:19.530Z,79.10
2018-10-03T20:42:48.433Z,79.10
2018-10-03T20:45:17.265Z,80.30
2018-10-03T20:47:46.052Z,79.50
2018-10-03T20:50:15.018Z,80.20
2018-10-03T20:52:44.034Z,80.90
2018-10-03T20:55:12.773Z,80.90
2018-10-03T20:57:41.768Z,80.10
2018-10-03T21:00:10.517Z,79.40
2018-10-03T21:02:39.199Z,78.60
2018-10-03T21:05:08.008Z,78.60
2018-10-03T21:07:36.765Z,79.40
2018-10-03T21:10:05.684Z,79.50
2018-10-03T21:12:34.322Z,80.20
2018-10-03T21:15:03.169Z,80.40
2018-10-03T21:17:31.844Z,80.00
2018-10-03T21:20:00.496Z,80.90
2018-10-03T21:22:29.457Z,80.00
2018-10-03T21:24:58.121Z,79.80
2018-10-03T21:27:26.880Z,78.90
2018-10-03T21:29:55.517Z,79.20
2018-10-03T21:32:24.326Z,79.70
2018-10-03T21:34:52.964Z,79.20
2018-10-03T21:37:21.626Z,79.60
2018-10-03T21:39:50.445Z,79.70
2018-10-03T21:42:19.547Z,79.70
2018-10-03T21:44:48.501Z,79.30
2018-10-03T21:47:17.356Z,80.40
2018-10-03T21:49:46.151Z,81.00
2018-10-03T21:52:15.028Z,80.50
2018-10-03T21:54:43.701Z,80.70
2018-10-03T21:57:12.540Z,80.70
2018-10-03T21:59:41.310Z,81.40
2018-10-03T22:02:09.925Z,81.60
2018-10-03T22:04:38.757Z,82.50
2018-10-03T22:07:07.569Z,84.50
2018-10-03T22:09:36.313Z,84.80
2018-10-03T22:12:05.192Z,85.00
2018-10-03T22:14:33.943Z,85.60
2018-10-03T22:17:02.793Z,85.60
2018-10-03T22:19:31.408Z,85.70
2018-10-03T22:22:00.021Z,85.30
2018-10-03T22:24:29.360Z,86.20
2018-10-03T22:26:58.051Z,87.10
2018-10-03T22:29:26.724Z,86.70
2018-10-03T22:31:55.558Z,86.10
2018-10-03T22:34:24.208Z,84.90
2018-10-03T22:36:52.950Z,83.90
2018-10-03T22:39:21.736Z,82.90
2018-10-03T22:41:50.576Z,82.60
2018-10-03T22:44:19.221Z,82.30
2018-10-03T22:46:48.045Z,83.00
2018-10-03T22:49:16.804Z,83.80
2018-10-03T22:51:45.696Z,84.00
2018-10-03T22:54:14.289Z,84.10
2018-10-03T22:56:42.956Z,84.60
2018-10-03T22:59:11.844Z,84.60
2018-10-03T23:01:40.533Z,83.00
2018-10-03T23:04:09.297Z,84.30
2018-10-03T23:06:37.912Z,83.90
2018-10-03T23:09:07.604Z,82.70
2018-10-03T23:11:36.788Z,82.70
2018-10-03T23:14:05.841Z,82.90
2018-10-03T23:16:34.625Z,82.60
2018-10-03T23:19:03.453Z,82.70
2018-10-03T23:21:32.201Z,82.30
2018-10-03T23:24:00.873Z,82.20
2018-10-03T23:26:29.740Z,82.70
2018-10-03T23:28:58.543Z,82.60
2018-10-03T23:31:27.206Z,82.90
2018-10-03T23:33:56.263Z,83.40
2018-10-03T23:36:24.924Z,84.00
2018-10-03T23:38:53.601Z,84.00
2018-10-03T23:41:22.522Z,83.80
2018-10-03T23:43:51.159Z,83.20
2018-10-03T23:46:19.876Z,82.30
2018-10-03T23:48:48.584Z,82.00
2018-10-03T23:51:17.476Z,81.70
2018-10-03T23:53:46.260Z,81.60
2018-10-03T23:56:15.061Z,82.30
2018-10-03T23:58:43.910Z,82.60
